createdAt,value
2018-01-13T00:01:21.537Z,85.50
2018-01-13T00:02:57.923Z,80.25
2018-01-13T00:04:34.742Z,78.00
2018-01-13T00:06:11.192Z,89.50
2018-01-13T00:07:48.394Z,80.25
2018-01-13T00:09:24.828Z,78.00
2018-01-13T00:11:01.265Z,81.75
2018-01-13T00:12:38.428Z,81.75
2018-01-13T00:14:14.961Z,79.25
2018-01-13T00:15:51.579Z,79.75
2018-01-13T00:17:29.271Z,76.50
2018-01-13T00:19:05.735Z,84.75
2018-01-13T00:20:43.620Z,80.75
2018-01-13T00:22:20.096Z,75.25
2018-01-13T00:23:58.711Z,105.25
2018-01-13T00:25:37.088Z,81.00
2018-01-13T00:27:13.674Z,82.00
2018-01-13T00:28:50.674Z,74.50
2018-01-13T00:30:28.173Z,75.00
2018-01-13T00:32:05.180Z,78.25
2018-01-13T00:33:42.796Z,80.00
2018-01-13T00:35:19.514Z,77.25
2018-01-13T00:36:56.600Z,80.75
2018-01-13T00:38:33.048Z,80.00
2018-01-13T00:40:11.368Z,79.50
2018-01-13T00:41:48.764Z,75.75
2018-01-13T00:43:25.402Z,75.50
2018-01-13T00:45:03.638Z,79.75
2018-01-13T00:46:40.142Z,74.75
2018-01-13T00:48:16.740Z,77.25
2018-01-13T00:49:55.583Z,81.25
2018-01-13T00:51:32.114Z,73.25
2018-01-13T00:53:08.578Z,70.75
2018-01-13T00:54:45.040Z,69.00
2018-01-13T00:56:22.684Z,72.75
2018-01-13T00:57:59.107Z,76.00
2018-01-13T00:59:35.544Z,69.25
2018-01-13T01:01:11.934Z,80.75
2018-01-13T01:02:48.715Z,79.25
2018-01-13T01:06:01.245Z,76.75
2018-01-13T01:07:37.714Z,74.50
2018-01-13T01:09:14.456Z,75.50
2018-01-13T01:10:50.955Z,72.00
2018-01-13T01:12:27.308Z,79.00
2018-01-13T01:14:03.676Z,82.50
2018-01-13T01:15:40.511Z,77.75
2018-01-13T01:17:17.072Z,76.75
2018-01-13T01:18:54.325Z,75.50
2018-01-13T01:20:31.525Z,70.50
2018-01-13T01:22:08.347Z,68.00
2018-01-13T01:23:45.957Z,74.00
2018-01-13T01:25:22.371Z,79.25
2018-01-13T01:26:58.765Z,72.25
2018-01-13T01:28:35.614Z,72.25
2018-01-13T01:30:14.372Z,72.25
2018-01-13T01:31:50.784Z,70.50
2018-01-13T01:33:27.202Z,64.75
2018-01-13T01:35:04.024Z,70.50
2018-01-13T01:36:41.432Z,75.25
2018-01-13T01:38:17.843Z,69.00
2018-01-13T01:39:54.256Z,73.50
2018-01-13T01:41:30.991Z,71.00
2018-01-13T01:43:07.366Z,72.75
2018-01-13T01:44:43.760Z,68.00
2018-01-13T01:46:20.177Z,66.25
2018-01-13T01:47:57.616Z,67.75
2018-01-13T01:49:34.551Z,68.75
2018-01-13T01:51:11.800Z,76.50
2018-01-13T01:52:48.203Z,68.00
2018-01-13T01:54:25.879Z,69.50
2018-01-13T01:56:02.265Z,67.25
2018-01-13T01:57:38.743Z,68.75
2018-01-13T01:59:15.047Z,71.25
2018-01-13T02:00:52.638Z,74.00
2018-01-13T02:02:29.232Z,67.75
2018-01-13T02:04:06.420Z,70.00
2018-01-13T02:05:43.586Z,67.50
2018-01-13T02:07:21.252Z,70.00
2018-01-13T02:08:57.715Z,68.00
2018-01-13T02:10:33.997Z,67.50
2018-01-13T02:12:10.347Z,67.75
2018-01-13T02:13:47.296Z,65.25
2018-01-13T02:15:23.680Z,68.25
2018-01-13T02:17:00.043Z,67.75
2018-01-13T02:18:36.458Z,63.50
2018-01-13T02:20:14.112Z,72.25
2018-01-13T02:21:50.567Z,66.75
2018-01-13T02:23:27.081Z,62.25
2018-01-13T02:25:03.520Z,63.00
2018-01-13T02:26:40.302Z,63.25
2018-01-13T02:28:16.718Z,68.25
2018-01-13T02:29:53.176Z,66.50
2018-01-13T02:31:29.801Z,66.25
2018-01-13T02:33:06.834Z,78.75
2018-01-13T02:34:43.374Z,65.25
2018-01-13T02:36:19.846Z,70.00
2018-01-13T02:37:56.373Z,67.75
2018-01-13T02:39:33.225Z,71.25
2018-01-13T02:41:09.723Z,72.50
2018-01-13T02:42:46.170Z,67.50
2018-01-13T02:44:22.826Z,66.75
2018-01-13T02:45:59.859Z,66.50
2018-01-13T02:47:36.401Z,61.25
2018-01-13T02:49:13.043Z,59.25
2018-01-13T02:50:49.674Z,66.25
2018-01-13T02:52:26.729Z,69.50
2018-01-13T02:54:03.193Z,67.75
2018-01-13T02:55:39.858Z,63.75
2018-01-13T02:57:16.389Z,70.75
2018-01-13T02:58:53.352Z,64.00
2018-01-13T03:00:29.881Z,64.75
2018-01-13T03:02:06.425Z,70.25
2018-01-13T03:05:22.358Z,63.75
2018-01-13T03:06:58.757Z,64.50
2018-01-13T03:08:35.084Z,70.00
2018-01-13T03:10:11.521Z,66.00
2018-01-13T03:11:48.347Z,63.50
2018-01-13T03:13:24.813Z,61.00
2018-01-13T03:15:02.054Z,57.50
2018-01-13T03:16:38.347Z,71.00
2018-01-13T03:18:15.082Z,64.50
2018-01-13T03:19:51.395Z,63.25
2018-01-13T03:21:28.635Z,66.00
2018-01-13T03:23:04.906Z,66.00
2018-01-13T03:24:41.667Z,66.75
2018-01-13T03:26:18.045Z,60.75
2018-01-13T03:27:54.425Z,62.50
2018-01-13T03:29:30.727Z,71.50
2018-01-13T03:31:08.339Z,62.00
2018-01-13T03:32:45.557Z,61.25
2018-01-13T03:34:21.861Z,57.75
2018-01-13T03:35:58.274Z,62.75
2018-01-13T03:37:35.161Z,67.50
2018-01-13T03:39:11.492Z,73.00
2018-01-13T03:40:47.942Z,53.00
2018-01-13T03:42:24.350Z,63.25
2018-01-13T03:44:01.129Z,61.00
2018-01-13T03:45:37.578Z,58.75
2018-01-13T03:47:13.889Z,60.50
2018-01-13T03:48:50.470Z,65.75
2018-01-13T03:50:27.320Z,63.25
2018-01-13T03:52:03.901Z,69.25
2018-01-13T03:53:41.246Z,61.75
2018-01-13T03:55:17.719Z,63.00
2018-01-13T03:56:54.478Z,59.75
2018-01-13T03:58:30.869Z,68.00
2018-01-13T04:00:07.157Z,62.25
2018-01-13T04:01:43.520Z,62.50
2018-01-13T04:03:20.337Z,61.50
2018-01-13T04:04:56.855Z,58.50
2018-01-13T04:06:33.958Z,58.75
2018-01-13T04:08:11.790Z,62.00
2018-01-13T04:09:49.000Z,67.75
2018-01-13T04:11:27.999Z,65.50
2018-01-13T04:13:04.333Z,57.25
2018-01-13T04:14:40.760Z,63.00
2018-01-13T04:16:19.698Z,62.50
2018-01-13T04:17:56.440Z,59.25
2018-01-13T04:19:35.468Z,65.00
2018-01-13T04:21:11.771Z,57.75
2018-01-13T04:22:49.337Z,59.00
2018-01-13T04:24:26.389Z,59.25
2018-01-13T04:26:02.821Z,67.50
2018-01-13T04:27:39.214Z,64.00
2018-01-13T04:29:17.156Z,65.75
2018-01-13T04:30:54.761Z,50.75
2018-01-13T04:32:34.754Z,65.00
2018-01-13T04:34:11.623Z,57.00
2018-01-13T04:35:48.500Z,61.50
2018-01-13T04:37:26.187Z,58.50
2018-01-13T04:39:04.696Z,60.50
2018-01-13T04:40:41.336Z,60.75
2018-01-13T04:42:21.032Z,64.00
2018-01-13T04:43:58.625Z,60.75
2018-01-13T04:45:36.429Z,56.50
2018-01-13T04:47:12.747Z,61.00
2018-01-13T04:48:49.250Z,56.00
2018-01-13T04:50:26.103Z,57.50
2018-01-13T04:52:04.568Z,58.00
2018-01-13T04:53:41.240Z,53.25
2018-01-13T04:55:19.642Z,59.00
2018-01-13T04:56:55.908Z,59.25
2018-01-13T04:58:32.213Z,57.75
2018-01-13T05:00:08.606Z,57.75
2018-01-13T05:01:46.064Z,50.25
2018-01-13T05:03:22.465Z,53.25
2018-01-13T05:04:58.824Z,45.75
2018-01-13T05:06:35.139Z,48.25
2018-01-13T05:08:11.956Z,54.50
2018-01-13T05:09:48.302Z,59.25
2018-01-13T05:11:24.670Z,55.75
2018-01-13T05:13:00.946Z,60.25
2018-01-13T05:14:37.754Z,53.50
2018-01-13T05:16:14.123Z,51.25
2018-01-13T05:17:50.399Z,55.25
2018-01-13T05:19:26.668Z,54.50
2018-01-13T05:21:02.957Z,53.50
2018-01-13T05:22:40.058Z,53.25
2018-01-13T05:24:16.411Z,49.25
2018-01-13T05:25:52.778Z,52.25
2018-01-13T05:27:29.606Z,55.50
2018-01-13T05:29:05.877Z,55.00
2018-01-13T05:30:42.236Z,56.00
2018-01-13T05:32:18.470Z,57.75
2018-01-13T05:33:56.008Z,52.25
2018-01-13T05:35:32.264Z,54.25
2018-01-13T05:37:09.041Z,57.00
2018-01-13T05:38:46.142Z,50.25
2018-01-13T05:40:22.807Z,46.50
2018-01-13T05:41:59.049Z,51.50
2018-01-13T05:43:35.412Z,49.75
2018-01-13T05:45:11.651Z,51.50
2018-01-13T05:46:48.359Z,48.25
2018-01-13T05:48:24.615Z,47.25
2018-01-13T05:50:01.045Z,57.00
2018-01-13T05:51:37.411Z,56.50
2018-01-13T05:53:14.242Z,47.75
2018-01-13T05:54:50.534Z,53.75
2018-01-13T05:56:26.916Z,48.25
2018-01-13T05:58:03.243Z,51.50
2018-01-13T05:59:41.886Z,57.00
2018-01-13T06:01:18.347Z,46.50
2018-01-13T06:02:54.845Z,44.25
2018-01-13T06:04:31.216Z,44.00
2018-01-13T06:06:08.211Z,58.50
2018-01-13T06:07:44.476Z,51.25
2018-01-13T06:09:21.505Z,52.00
2018-01-13T06:10:58.294Z,46.75
2018-01-13T06:12:34.591Z,57.25
2018-01-13T06:14:11.471Z,45.25
2018-01-13T06:15:47.771Z,56.50
2018-01-13T06:17:24.569Z,53.25
2018-01-13T06:19:00.884Z,43.25
2018-01-13T06:20:38.509Z,51.75
2018-01-13T06:22:14.813Z,42.00
2018-01-13T06:23:52.475Z,42.00
2018-01-13T06:25:28.846Z,50.00
2018-01-13T06:27:05.129Z,46.50
2018-01-13T06:28:42.176Z,47.75
2018-01-13T06:30:21.353Z,40.25
2018-01-13T06:31:57.877Z,47.25
2018-01-13T06:33:34.422Z,43.50
2018-01-13T06:35:10.759Z,51.50
2018-01-13T06:36:48.318Z,37.75
2018-01-13T06:38:24.645Z,50.50
2018-01-13T06:40:01.199Z,43.25
2018-01-13T06:41:38.282Z,44.50
2018-01-13T06:43:15.127Z,40.75
2018-01-13T06:44:52.149Z,43.75
2018-01-13T06:46:28.561Z,50.00
2018-01-13T06:48:05.638Z,37.75
2018-01-13T06:49:44.220Z,40.00
2018-01-13T06:51:20.540Z,40.75
2018-01-13T06:52:56.751Z,31.50
2018-01-13T06:54:35.991Z,43.75
2018-01-13T06:56:12.895Z,22.50
2018-01-13T06:57:50.980Z,38.00
2018-01-13T06:59:27.529Z,26.00
2018-01-13T07:01:04.294Z,39.25
2018-01-13T07:02:41.215Z,39.50
2018-01-13T07:04:17.427Z,43.50
2018-01-13T07:05:53.718Z,38.00
2018-01-13T07:07:30.104Z,38.00
2018-01-13T07:09:07.273Z,43.75
2018-01-13T07:10:43.698Z,34.50
2018-01-13T07:12:20.424Z,31.00
2018-01-13T07:13:56.893Z,35.25
2018-01-13T07:15:33.834Z,32.25
2018-01-13T07:17:10.246Z,31.25
2018-01-13T07:18:46.698Z,30.00
2018-01-13T07:20:22.999Z,33.00
2018-01-13T07:21:59.597Z,33.25
2018-01-13T07:23:36.610Z,31.50
2018-01-13T07:25:13.401Z,51.25
2018-01-13T07:26:50.161Z,31.00
2018-01-13T07:28:26.846Z,23.25
2018-01-13T07:30:03.266Z,22.50
2018-01-13T07:31:39.782Z,37.75
2018-01-13T07:33:16.016Z,33.75
2018-01-13T07:36:31.541Z,23.25
2018-01-13T07:38:08.100Z,19.25
2018-01-13T07:39:44.741Z,34.50
2018-01-13T07:41:21.622Z,42.50
2018-01-13T07:42:58.345Z,21.75
2018-01-13T07:44:35.100Z,42.75
2018-01-13T07:46:11.804Z,42.50
2018-01-13T07:47:48.505Z,34.25
2018-01-13T07:49:26.566Z,46.75
2018-01-13T07:51:03.199Z,19.00
2018-01-13T07:52:39.538Z,36.25
2018-01-13T07:54:16.288Z,42.25
2018-01-13T07:55:52.560Z,29.50
2018-01-13T07:57:29.675Z,35.75
2018-01-13T07:59:06.049Z,40.75
2018-01-13T08:00:42.899Z,34.00
2018-01-13T08:02:19.245Z,54.25
2018-01-13T08:03:56.483Z,22.00
2018-01-13T08:05:33.348Z,31.25
2018-01-13T08:07:11.260Z,33.50
2018-01-13T08:08:47.798Z,37.00
2018-01-13T08:10:24.293Z,35.25
2018-01-13T08:12:00.627Z,37.00
2018-01-13T08:13:37.974Z,17.75
2018-01-13T08:15:16.722Z,31.00
2018-01-13T08:16:53.368Z,32.00
2018-01-13T08:18:29.846Z,30.00
2018-01-13T08:20:06.966Z,33.25
2018-01-13T08:21:43.548Z,21.00
2018-01-13T08:23:20.038Z,21.25
2018-01-13T08:24:56.657Z,31.75
2018-01-13T08:26:33.691Z,21.00
2018-01-13T08:28:10.921Z,38.50
2018-01-13T08:29:47.271Z,35.00
2018-01-13T08:31:23.888Z,32.00
2018-01-13T08:33:00.722Z,24.75
2018-01-13T08:34:37.008Z,27.75
2018-01-13T08:36:13.378Z,19.25
2018-01-13T08:37:50.903Z,21.00
2018-01-13T08:39:27.662Z,18.00
2018-01-13T08:41:04.129Z,24.50
2018-01-13T08:42:40.520Z,23.00
2018-01-13T08:44:16.937Z,28.75
2018-01-13T08:45:54.566Z,21.25
2018-01-13T08:47:30.919Z,23.00
2018-01-13T08:49:07.346Z,30.75
2018-01-13T08:50:43.797Z,21.50
2018-01-13T08:52:21.478Z,32.75
2018-01-13T08:53:57.778Z,50.00
2018-01-13T08:55:34.296Z,24.25
2018-01-13T08:57:11.163Z,25.75
2018-01-13T08:58:48.810Z,41.50
2018-01-13T09:00:26.062Z,38.75
2018-01-13T09:02:03.417Z,23.25
2018-01-13T09:03:40.373Z,24.50
2018-01-13T09:05:17.097Z,11.75
2018-01-13T09:06:53.470Z,18.75
2018-01-13T09:08:30.133Z,18.50
2018-01-13T09:10:07.236Z,24.50
2018-01-13T09:11:44.142Z,29.50
2018-01-13T09:13:20.518Z,11.00
2018-01-13T09:14:56.985Z,24.75
2018-01-13T09:16:33.324Z,25.50
2018-01-13T09:18:10.272Z,34.75
2018-01-13T09:19:46.816Z,32.25
2018-01-13T09:21:23.607Z,18.50
2018-01-13T09:23:00.202Z,23.25
2018-01-13T09:24:36.956Z,24.75
2018-01-13T09:26:13.380Z,57.75
2018-01-13T09:27:49.899Z,13.75
2018-01-13T09:29:26.344Z,36.00
2018-01-13T09:31:02.757Z,40.25
2018-01-13T09:32:39.944Z,20.25
2018-01-13T09:34:16.455Z,40.25
2018-01-13T09:35:55.539Z,21.00
2018-01-13T09:37:32.493Z,19.75
2018-01-13T09:39:08.959Z,25.50
2018-01-13T09:40:46.770Z,33.00
2018-01-13T09:42:23.974Z,25.00
2018-01-13T09:44:00.746Z,28.00
2018-01-13T09:45:37.306Z,26.50
2018-01-13T09:47:13.674Z,20.00
2018-01-13T09:48:50.938Z,35.50
2018-01-13T09:50:28.573Z,31.50
2018-01-13T09:52:05.025Z,12.75
2018-01-13T09:53:41.525Z,38.75
2018-01-13T09:55:19.147Z,52.75
2018-01-13T09:56:55.839Z,26.75
2018-01-13T09:58:32.180Z,14.00
2018-01-13T10:00:08.981Z,43.50
2018-01-13T10:01:45.606Z,67.50
2018-01-13T10:03:23.114Z,32.50
2018-01-13T10:04:59.406Z,18.25
2018-01-13T10:06:35.847Z,39.25
2018-01-13T10:08:12.577Z,48.50
2018-01-13T10:09:49.758Z,18.25
2018-01-13T10:11:26.209Z,20.50
2018-01-13T10:13:02.672Z,48.00
2018-01-13T10:14:39.999Z,16.25
2018-01-13T10:16:17.038Z,37.25
2018-01-13T10:17:53.436Z,33.50
2018-01-13T10:19:29.803Z,35.75
2018-01-13T10:21:06.160Z,24.50
2018-01-13T10:22:42.764Z,33.25
2018-01-13T10:24:19.173Z,32.25
2018-01-13T10:25:55.946Z,17.00
2018-01-13T10:27:32.589Z,26.25
2018-01-13T10:29:10.149Z,18.25
2018-01-13T10:30:46.636Z,15.75
2018-01-13T10:32:23.022Z,19.25
2018-01-13T10:33:59.502Z,16.25
2018-01-13T10:35:36.207Z,18.75
2018-01-13T10:37:12.744Z,22.75
2018-01-13T10:38:49.255Z,31.75
2018-01-13T10:40:27.247Z,16.25
2018-01-13T10:42:04.092Z,55.00
2018-01-13T10:43:41.144Z,28.00
2018-01-13T10:45:18.797Z,29.50
2018-01-13T10:46:55.326Z,12.50
2018-01-13T10:48:32.558Z,19.75
2018-01-13T10:50:08.860Z,21.00
2018-01-13T10:51:46.161Z,33.25
2018-01-13T10:53:22.599Z,25.75
2018-01-13T10:55:00.242Z,21.75
2018-01-13T10:56:36.789Z,23.00
2018-01-13T10:58:14.125Z,17.50
2018-01-13T10:59:50.524Z,30.75
2018-01-13T11:01:38.385Z,31.50
2018-01-13T11:03:14.961Z,21.75
2018-01-13T11:04:51.577Z,17.75
2018-01-13T11:06:28.046Z,25.25
2018-01-13T11:08:05.016Z,30.50
2018-01-13T11:09:41.407Z,16.25
2018-01-13T11:11:18.056Z,18.00
2018-01-13T11:12:54.696Z,31.75
2018-01-13T11:14:31.703Z,18.00
2018-01-13T11:16:08.714Z,18.50
2018-01-13T11:17:46.226Z,22.50
2018-01-13T11:19:22.668Z,16.75
2018-01-13T11:21:00.583Z,16.50
2018-01-13T11:22:37.004Z,18.25
2018-01-13T11:24:13.439Z,28.50
2018-01-13T11:25:50.004Z,22.00
2018-01-13T11:27:26.351Z,14.75
2018-01-13T11:29:02.938Z,14.00
2018-01-13T11:30:39.710Z,32.75
2018-01-13T11:32:16.145Z,8.50
2018-01-13T11:33:53.856Z,15.50
2018-01-13T11:35:31.102Z,24.00
2018-01-13T11:37:07.496Z,18.50
2018-01-13T11:38:44.797Z,10.25
2018-01-13T11:40:22.075Z,25.00
2018-01-13T11:41:58.609Z,7.75
2018-01-13T11:43:35.228Z,22.50
2018-01-13T11:45:13.487Z,18.75
2018-01-13T11:46:52.208Z,15.00
2018-01-13T11:48:29.764Z,13.00
2018-01-13T11:50:06.845Z,17.00
2018-01-13T11:51:43.455Z,20.75
2018-01-13T11:53:20.694Z,23.50
2018-01-13T11:54:58.047Z,21.50
2018-01-13T11:56:34.860Z,20.00
2018-01-13T11:58:11.194Z,19.00
2018-01-13T11:59:48.176Z,15.50
2018-01-13T12:01:24.861Z,27.75
2018-01-13T12:03:01.242Z,35.50
2018-01-13T12:04:37.625Z,31.75
2018-01-13T12:06:14.637Z,38.75
2018-01-13T12:07:51.041Z,19.50
2018-01-13T12:18:04.591Z,19.00
2018-01-13T12:19:42.013Z,11.50
2018-01-13T12:21:18.486Z,32.00
2018-01-13T12:22:54.878Z,20.25
2018-01-13T12:24:31.572Z,18.00
2018-01-13T12:26:11.479Z,23.50
2018-01-13T12:27:47.960Z,36.50
2018-01-13T12:29:26.250Z,14.00
2018-01-13T12:31:03.697Z,33.00
2018-01-13T12:32:39.986Z,16.75
2018-01-13T12:34:17.126Z,13.00
2018-01-13T12:35:53.575Z,15.00
2018-01-13T12:37:30.473Z,19.25
2018-01-13T12:39:07.428Z,10.00
2018-01-13T12:40:43.884Z,20.00
2018-01-13T12:42:20.401Z,14.50
2018-01-13T12:43:58.265Z,22.75
2018-01-13T12:45:44.455Z,12.25
2018-01-13T12:47:21.411Z,28.50
2018-01-13T12:48:57.858Z,25.50
2018-01-13T12:50:34.774Z,29.25
2018-01-13T12:52:11.963Z,34.75
2018-01-13T12:53:49.235Z,26.00
2018-01-13T12:55:25.852Z,14.75
2018-01-13T12:57:05.264Z,23.75
2018-01-13T12:58:42.056Z,23.00
2018-01-13T13:00:18.478Z,15.75
2018-01-13T13:01:57.688Z,22.25
2018-01-13T13:03:34.598Z,20.00
2018-01-13T13:05:11.522Z,28.50
2018-01-13T13:06:48.151Z,24.50
2018-01-13T13:08:25.458Z,27.50
2018-01-13T13:10:03.232Z,17.75
2018-01-13T13:13:22.479Z,14.25
2018-01-13T13:14:59.211Z,21.25
2018-01-13T13:16:36.979Z,22.50
2018-01-13T13:18:13.491Z,28.25
2018-01-13T13:19:49.898Z,28.25
2018-01-13T13:21:26.330Z,23.75
2018-01-13T13:23:04.513Z,16.25
2018-01-13T13:24:41.360Z,17.00
2018-01-13T13:26:19.022Z,11.00
2018-01-13T13:27:55.354Z,28.00
2018-01-13T13:29:32.273Z,9.25
2018-01-13T13:31:08.614Z,20.50
2018-01-13T13:32:44.960Z,12.50
2018-01-13T13:34:22.220Z,18.25
2018-01-13T13:35:59.999Z,23.75
2018-01-13T13:37:36.471Z,24.50
2018-01-13T13:39:13.723Z,18.75
2018-01-13T13:40:50.171Z,20.25
2018-01-13T13:42:26.600Z,10.50
2018-01-13T13:44:03.074Z,21.75
2018-01-13T13:45:39.773Z,12.50
2018-01-13T13:47:16.567Z,11.00
2018-01-13T13:48:53.790Z,16.25
2018-01-13T13:50:31.198Z,15.00
2018-01-13T13:52:08.074Z,7.25
2018-01-13T13:53:44.622Z,18.75
2018-01-13T13:55:22.240Z,18.25
2018-01-13T13:56:59.464Z,21.50
2018-01-13T13:58:36.692Z,12.75
2018-01-13T14:00:13.464Z,18.25
2018-01-13T14:01:57.562Z,10.50
2018-01-13T14:03:34.497Z,12.75
2018-01-13T14:05:11.249Z,20.75
2018-01-13T14:06:47.845Z,13.25
2018-01-13T14:08:24.726Z,17.50
2018-01-13T14:10:01.950Z,22.50
2018-01-13T14:11:38.375Z,12.25
2018-01-13T14:13:15.017Z,20.25
2018-01-13T14:14:51.798Z,17.50
2018-01-13T14:16:29.473Z,16.00
2018-01-13T14:18:05.978Z,9.00
2018-01-13T14:19:42.560Z,9.50
2018-01-13T14:21:20.452Z,20.00
2018-01-13T14:22:56.795Z,24.00
2018-01-13T14:24:33.243Z,23.75
2018-01-13T14:26:12.873Z,15.50
2018-01-13T14:27:49.379Z,26.75
2018-01-13T14:29:26.823Z,17.75
2018-01-13T14:31:04.132Z,26.50
2018-01-13T14:32:40.794Z,24.50
2018-01-13T14:34:18.238Z,17.50
2018-01-13T14:35:55.120Z,21.50
2018-01-13T14:37:31.635Z,22.25
2018-01-13T14:39:14.861Z,21.75
2018-01-13T14:40:51.821Z,19.00
2018-01-13T14:42:28.491Z,11.50
2018-01-13T14:44:07.827Z,19.25
2018-01-13T14:45:46.679Z,8.00
2018-01-13T14:47:27.287Z,17.00
2018-01-13T14:49:05.035Z,25.00
2018-01-13T14:50:42.788Z,8.00
2018-01-13T14:52:19.475Z,11.00
2018-01-13T14:53:56.704Z,22.50
2018-01-13T14:55:33.491Z,18.00
2018-01-13T14:57:11.410Z,8.75
2018-01-13T14:58:48.173Z,7.75
2018-01-13T15:00:27.286Z,23.25
2018-01-13T15:02:04.714Z,17.50
2018-01-13T15:03:41.197Z,24.25
2018-01-13T15:05:33.537Z,11.00
2018-01-13T15:07:11.058Z,14.00
2018-01-13T15:08:48.137Z,16.00
2018-01-13T15:10:24.655Z,13.50
2018-01-13T15:12:02.687Z,14.25
2018-01-13T15:13:40.573Z,15.25
2018-01-13T15:15:19.383Z,11.00
2018-01-13T15:16:56.229Z,23.25
2018-01-13T15:18:32.827Z,12.75
2018-01-13T15:20:11.441Z,20.00
2018-01-13T15:21:47.924Z,14.25
2018-01-13T15:23:24.422Z,15.50
2018-01-13T15:25:01.043Z,15.75
2018-01-13T15:26:39.488Z,23.75
2018-01-13T15:28:22.170Z,27.50
2018-01-13T15:29:59.323Z,29.00
2018-01-13T15:31:38.791Z,18.50
2018-01-13T15:33:16.437Z,15.75
2018-01-13T15:34:53.135Z,13.00
2018-01-13T15:38:12.876Z,12.25
2018-01-13T15:39:51.366Z,11.50
2018-01-13T15:41:29.152Z,18.50
2018-01-13T15:43:06.547Z,7.75
2018-01-13T15:44:43.128Z,14.50
2018-01-13T15:46:23.350Z,18.75
2018-01-13T15:48:05.872Z,13.00
2018-01-13T15:49:44.241Z,13.00
2018-01-13T15:51:21.165Z,8.50
2018-01-13T15:53:00.221Z,17.00
2018-01-13T15:54:36.890Z,15.00
2018-01-13T15:56:14.355Z,15.75
2018-01-13T15:57:53.053Z,19.50
2018-01-13T15:59:30.437Z,21.00
2018-01-13T16:01:08.318Z,16.00
2018-01-13T16:02:45.931Z,14.25
2018-01-13T16:04:22.528Z,23.00
2018-01-13T16:05:59.530Z,24.00
2018-01-13T16:07:37.221Z,21.25
2018-01-13T16:09:14.072Z,26.25
2018-01-13T16:10:51.511Z,24.25
2018-01-13T16:12:30.731Z,27.75
2018-01-13T16:14:07.352Z,22.50
2018-01-13T16:15:45.117Z,30.25
2018-01-13T16:17:22.069Z,22.00
2018-01-13T16:19:00.184Z,25.75
2018-01-13T16:20:36.775Z,22.50
2018-01-13T16:22:14.706Z,31.25
2018-01-13T16:23:56.434Z,26.75
2018-01-13T16:25:34.001Z,37.00
2018-01-13T16:27:11.454Z,17.75
2018-01-13T16:28:48.925Z,23.50
2018-01-13T16:30:25.599Z,25.75
2018-01-13T16:32:02.783Z,25.50
2018-01-13T16:33:40.451Z,26.00
2018-01-13T16:35:17.863Z,64.75
2018-01-13T16:36:56.140Z,20.25
2018-01-13T16:38:34.409Z,24.75
2018-01-13T16:40:11.193Z,35.00
2018-01-13T16:41:48.127Z,30.50
2018-01-13T16:43:24.649Z,23.50
2018-01-13T16:45:03.905Z,25.75
2018-01-13T16:46:41.453Z,22.00
2018-01-13T16:48:17.927Z,30.00
2018-01-13T16:49:55.126Z,28.75
2018-01-13T16:51:33.224Z,27.25
2018-01-13T16:53:12.262Z,26.00
2018-01-13T16:54:49.367Z,27.50
2018-01-13T16:56:27.523Z,27.25
2018-01-13T16:58:04.439Z,30.50
2018-01-13T16:59:40.884Z,37.25
2018-01-13T17:01:19.040Z,34.50
2018-01-13T17:02:58.028Z,32.50
2018-01-13T17:04:34.970Z,42.50
2018-01-13T17:06:12.371Z,33.50
2018-01-13T17:07:50.074Z,45.50
2018-01-13T17:09:26.731Z,41.50
2018-01-13T17:11:05.608Z,60.00
2018-01-13T17:12:42.309Z,37.25
2018-01-13T17:14:18.844Z,35.25
2018-01-13T17:15:55.462Z,32.25
2018-01-13T17:17:31.980Z,34.25
2018-01-13T17:19:09.364Z,36.75
2018-01-13T17:20:45.820Z,31.75
2018-01-13T17:22:22.242Z,32.75
2018-01-13T17:23:59.883Z,30.50
2018-01-13T17:25:36.425Z,35.50
2018-01-13T17:27:14.101Z,32.25
2018-01-13T17:28:51.038Z,35.75
2018-01-13T17:30:27.915Z,35.00
2018-01-13T17:32:04.562Z,34.25
2018-01-13T17:33:42.072Z,35.50
2018-01-13T17:35:19.431Z,38.00
2018-01-13T17:36:58.802Z,42.75
2018-01-13T17:38:36.114Z,36.50
2018-01-13T17:40:13.437Z,35.00
2018-01-13T17:41:50.614Z,43.00
2018-01-13T17:43:29.511Z,44.25
2018-01-13T17:45:07.414Z,41.75
2018-01-13T17:46:45.330Z,43.25
2018-01-13T17:48:22.217Z,35.50
2018-01-13T17:49:59.187Z,28.25
2018-01-13T17:51:36.104Z,40.25
2018-01-13T17:53:12.756Z,38.25
2018-01-13T17:54:49.509Z,42.00
2018-01-13T17:56:26.579Z,34.00
2018-01-13T17:58:03.912Z,34.50
2018-01-13T17:59:40.432Z,40.50
2018-01-13T18:01:17.303Z,40.75
2018-01-13T18:02:53.860Z,41.75
2018-01-13T18:04:31.081Z,41.25
2018-01-13T18:06:09.022Z,39.50
2018-01-13T18:07:45.598Z,37.50
2018-01-13T18:09:22.773Z,36.00
2018-01-13T18:11:04.749Z,34.25
2018-01-13T18:12:41.433Z,39.00
2018-01-13T18:14:19.740Z,40.00
2018-01-13T18:16:00.856Z,39.75
2018-01-13T18:17:39.166Z,37.00
2018-01-13T18:19:16.985Z,39.75
2018-01-13T18:20:55.046Z,33.75
2018-01-13T18:22:32.514Z,31.00
2018-01-13T18:24:09.985Z,43.25
2018-01-13T18:25:49.066Z,42.25
2018-01-13T18:27:25.898Z,33.75
2018-01-13T18:29:03.647Z,48.00
2018-01-13T18:30:41.099Z,43.50
2018-01-13T18:32:17.793Z,43.00
2018-01-13T18:33:54.314Z,43.75
2018-01-13T18:35:32.917Z,44.00
2018-01-13T18:37:10.645Z,37.75
2018-01-13T18:38:47.998Z,40.50
2018-01-13T18:40:26.098Z,41.50
2018-01-13T18:42:04.073Z,40.00
2018-01-13T18:45:26.917Z,41.00
2018-01-13T18:47:04.418Z,43.00
2018-01-13T18:48:41.587Z,38.00
2018-01-13T18:50:19.528Z,28.25
2018-01-13T18:51:58.373Z,49.25
2018-01-13T18:53:37.182Z,47.75
2018-01-13T18:55:22.999Z,37.75
2018-01-13T18:57:01.740Z,43.50
2018-01-13T18:58:38.642Z,43.00
2018-01-13T19:00:17.167Z,35.00
2018-01-13T19:01:54.700Z,32.25
2018-01-13T19:03:32.499Z,32.75
2018-01-13T19:05:10.729Z,35.75
2018-01-13T19:06:49.140Z,25.00
2018-01-13T19:08:27.681Z,22.75
2018-01-13T19:10:06.229Z,32.25
2018-01-13T19:11:45.461Z,31.25
2018-01-13T19:13:24.281Z,29.00
2018-01-13T19:15:07.670Z,40.25
2018-01-13T19:16:50.014Z,33.75
2018-01-13T19:18:29.538Z,44.75
2018-01-13T19:20:06.633Z,25.50
2018-01-13T19:21:44.628Z,44.75
2018-01-13T19:23:22.036Z,38.75
2018-01-13T19:24:59.697Z,37.00
2018-01-13T19:26:37.225Z,36.50
2018-01-13T19:28:14.144Z,34.25
2018-01-13T19:30:01.971Z,41.50
2018-01-13T19:31:39.817Z,43.25
2018-01-13T19:33:17.836Z,30.50
2018-01-13T19:34:54.763Z,30.75
2018-01-13T19:36:32.684Z,36.25
2018-01-13T19:38:12.571Z,40.75
2018-01-13T19:39:53.730Z,35.50
2018-01-13T19:41:33.442Z,40.00
2018-01-13T19:43:10.943Z,39.75
2018-01-13T19:44:49.135Z,39.00
2018-01-13T19:46:27.910Z,34.50
2018-01-13T19:48:06.146Z,40.00
2018-01-13T19:49:44.211Z,36.00
2018-01-13T19:51:24.004Z,39.25
2018-01-13T19:53:01.704Z,34.25
2018-01-13T19:54:40.682Z,42.50
2018-01-13T19:56:19.586Z,35.25
2018-01-13T19:57:58.777Z,31.25
2018-01-13T19:59:40.195Z,31.50
2018-01-13T20:01:18.646Z,25.75
2018-01-13T20:02:58.426Z,30.50
2018-01-13T20:04:36.967Z,30.75
2018-01-13T20:06:15.179Z,29.50
2018-01-13T20:07:57.576Z,28.25
2018-01-13T20:09:36.152Z,32.00
2018-01-13T20:11:15.240Z,36.50
2018-01-13T20:12:53.632Z,28.75
2018-01-13T20:14:34.949Z,35.25
2018-01-13T20:16:15.976Z,31.25
2018-01-13T20:17:54.410Z,29.50
2018-01-13T20:19:33.099Z,29.75
2018-01-13T20:21:11.522Z,19.50
2018-01-13T20:22:55.900Z,28.50
2018-01-13T20:24:40.050Z,33.75
2018-01-13T20:26:19.775Z,21.25
2018-01-13T20:27:59.861Z,25.75
2018-01-13T20:29:38.951Z,24.50
2018-01-13T20:31:17.940Z,44.50
2018-01-13T20:32:55.835Z,44.25
2018-01-13T20:34:36.117Z,32.25
2018-01-13T20:36:16.556Z,31.00
2018-01-13T20:37:54.658Z,20.75
2018-01-13T20:39:33.100Z,24.50
2018-01-13T20:41:11.001Z,34.50
2018-01-13T20:42:50.996Z,43.75
2018-01-13T20:44:31.426Z,28.50
2018-01-13T20:46:12.977Z,26.25
2018-01-13T20:47:51.568Z,25.00
2018-01-13T20:49:29.803Z,30.75
2018-01-13T20:51:10.388Z,25.00
2018-01-13T20:52:48.339Z,23.75
2018-01-13T20:54:32.984Z,17.50
2018-01-13T20:56:13.725Z,23.00
2018-01-13T20:57:51.085Z,22.00
2018-01-13T20:59:30.047Z,27.50
2018-01-13T21:01:09.532Z,29.50
2018-01-13T21:02:50.005Z,19.75
2018-01-13T21:04:29.456Z,61.25
2018-01-13T21:06:08.888Z,20.50
2018-01-13T21:07:48.342Z,30.00
2018-01-13T21:09:25.255Z,13.75
2018-01-13T21:11:06.254Z,16.50
2018-01-13T21:12:48.056Z,33.75
2018-01-13T21:14:26.289Z,22.25